createdAt,value
2023-01-29T00:00:15.282Z,100.00
2023-01-29T00:03:04.323Z,100.00
2023-01-29T00:05:32.589Z,100.00
2023-01-29T00:08:00.852Z,100.00
2023-01-29T00:10:29.083Z,100.00
2023-01-29T00:12:57.304Z,100.00
2023-01-29T00:15:25.993Z,100.00
2023-01-29T00:17:54.682Z,100.00
2023-01-29T00:20:22.851Z,100.00
2023-01-29T00:22:51.390Z,100.00
2023-01-29T00:25:19.513Z,100.00
2023-01-29T00:27:47.570Z,100.00
2023-01-29T00:30:19.754Z,100.00
2023-01-29T00:32:48.664Z,100.00
2023-01-29T00:35:17.070Z,100.00
2023-01-29T00:37:45.312Z,100.00
2023-01-29T00:40:14.206Z,100.00
2023-01-29T00:43:04.301Z,100.00
2023-01-29T00:45:34.502Z,100.00
2023-01-29T00:48:04.067Z,100.00
2023-01-29T00:50:32.451Z,100.00
2023-01-29T00:53:00.745Z,100.00
2023-01-29T00:55:28.857Z,100.00
2023-01-29T00:57:57.438Z,100.00
2023-01-29T01:00:25.720Z,100.00
2023-01-29T01:03:06.404Z,100.00
2023-01-29T01:05:35.399Z,100.00
2023-01-29T01:08:25.602Z,100.00
2023-01-29T01:11:06.751Z,100.00
2023-01-29T01:13:35.447Z,100.00
2023-01-29T01:16:10.369Z,100.00
2023-01-29T01:18:39.179Z,100.00
2023-01-29T01:21:07.338Z,100.00
2023-01-29T01:23:36.132Z,100.00
2023-01-29T01:26:09.651Z,100.00
2023-01-29T01:28:39.696Z,100.00
2023-01-29T01:31:12.713Z,100.00
2023-01-29T01:33:41.438Z,100.00
2023-01-29T01:36:10.059Z,100.00
2023-01-29T01:38:44.727Z,100.00
2023-01-29T01:41:15.707Z,100.00
2023-01-29T01:43:54.340Z,100.00
2023-01-29T01:46:23.319Z,100.00
2023-01-29T01:49:16.170Z,100.00
2023-01-29T01:51:48.825Z,100.00
2023-01-29T01:54:25.510Z,100.00
2023-01-29T01:57:09.288Z,100.00
2023-01-29T01:59:38.980Z,100.00
2023-01-29T02:02:26.625Z,100.00
2023-01-29T02:05:14.045Z,100.00
2023-01-29T02:08:04.429Z,100.00
2023-01-29T02:10:40.291Z,100.00
2023-01-29T02:13:09.651Z,100.00
2023-01-29T02:15:42.002Z,100.00
2023-01-29T02:18:10.440Z,100.00
2023-01-29T02:20:42.248Z,100.00
2023-01-29T02:23:45.891Z,100.00
2023-01-29T02:26:33.641Z,100.00
2023-01-29T02:29:25.469Z,100.00
2023-01-29T02:32:20.727Z,100.00
2023-01-29T02:35:13.757Z,100.00
2023-01-29T02:37:58.095Z,100.00
2023-01-29T02:40:38.768Z,100.00
2023-01-29T02:43:31.626Z,100.00
2023-01-29T02:46:12.218Z,100.00
2023-01-29T02:48:49.282Z,100.00
2023-01-29T02:51:25.535Z,100.00
2023-01-29T02:54:04.462Z,100.00
2023-01-29T02:56:57.317Z,100.00
2023-01-29T02:59:49.897Z,100.00
2023-01-29T03:02:29.280Z,100.00
2023-01-29T03:05:02.095Z,100.00
2023-01-29T03:07:46.878Z,100.00
2023-01-29T03:10:26.709Z,100.00
2023-01-29T03:13:01.635Z,100.00
2023-01-29T03:15:39.441Z,100.00
2023-01-29T03:18:43.777Z,100.00
2023-01-29T03:21:55.441Z,100.00
2023-01-29T03:25:07.874Z,100.00
2023-01-29T03:28:02.051Z,100.00
2023-01-29T03:30:55.897Z,100.00
2023-01-29T03:33:50.784Z,100.00
2023-01-29T03:36:27.923Z,100.00
2023-01-29T03:38:56.304Z,100.00
2023-01-29T03:41:38.742Z,100.00
2023-01-29T03:44:13.044Z,100.00
2023-01-29T03:47:13.935Z,100.00
2023-01-29T03:49:57.599Z,100.00
2023-01-29T03:52:38.124Z,100.00
2023-01-29T03:55:13.344Z,100.00
2023-01-29T03:57:57.711Z,100.00
2023-01-29T04:00:39.211Z,100.00
2023-01-29T04:03:29.437Z,100.00
2023-01-29T04:06:15.147Z,100.00
2023-01-29T04:09:06.020Z,100.00
2023-01-29T04:11:38.940Z,100.00
2023-01-29T04:14:09.506Z,100.00
2023-01-29T04:16:42.559Z,100.00
2023-01-29T04:19:37.573Z,100.00
2023-01-29T04:22:19.757Z,100.00
2023-01-29T04:24:49.721Z,100.00
2023-01-29T04:27:21.451Z,100.00
2023-01-29T04:30:20.832Z,100.00
2023-01-29T04:33:17.835Z,100.00
2023-01-29T04:35:55.408Z,100.00
2023-01-29T04:38:40.684Z,100.00
2023-01-29T04:41:21.098Z,100.00
2023-01-29T04:43:58.752Z,100.00
2023-01-29T04:46:54.220Z,100.00
2023-01-29T04:49:31.675Z,100.00
2023-01-29T04:52:13.205Z,100.00
2023-01-29T04:54:41.328Z,100.00
2023-01-29T04:57:35.851Z,100.00
2023-01-29T05:00:17.100Z,100.00
2023-01-29T05:02:46.526Z,99.92
2023-01-29T05:05:18.471Z,99.25
2023-01-29T05:07:48.063Z,100.00
2023-01-29T05:10:20.375Z,100.00
2023-01-29T05:12:55.277Z,99.73
2023-01-29T05:15:29.441Z,99.57
2023-01-29T05:18:01.926Z,100.00
2023-01-29T05:20:36.855Z,100.00
2023-01-29T05:23:04.961Z,99.23
2023-01-29T05:25:33.769Z,99.41
2023-01-29T05:28:12.091Z,97.95
2023-01-29T05:30:40.903Z,98.59
2023-01-29T05:33:15.421Z,99.73
2023-01-29T05:35:43.892Z,98.10
2023-01-29T05:38:12.355Z,98.46
2023-01-29T05:40:41.664Z,98.18
2023-01-29T05:43:24.967Z,97.62
2023-01-29T05:45:59.058Z,97.62
2023-01-29T05:48:29.274Z,97.81
2023-01-29T05:51:02.281Z,98.11
2023-01-29T05:53:31.597Z,99.29
2023-01-29T05:56:05.176Z,98.42
2023-01-29T05:58:34.531Z,99.94
2023-01-29T06:01:29.581Z,99.77
2023-01-29T06:03:57.814Z,100.00
2023-01-29T06:06:26.009Z,100.00
2023-01-29T06:08:54.306Z,99.91
2023-01-29T06:11:22.447Z,99.56
2023-01-29T06:13:51.141Z,99.72
2023-01-29T06:16:19.365Z,99.79
2023-01-29T06:18:47.636Z,99.97
2023-01-29T06:21:16.962Z,100.00
2023-01-29T06:23:46.862Z,100.00
2023-01-29T06:26:16.239Z,100.00
2023-01-29T06:28:46.104Z,99.49
2023-01-29T06:31:38.460Z,99.88
2023-01-29T06:34:02.752Z,99.23
2023-01-29T06:36:30.942Z,100.00
2023-01-29T06:38:59.304Z,99.88
2023-01-29T06:41:27.442Z,99.88
2023-01-29T06:43:55.556Z,100.00
2023-01-29T06:46:23.906Z,99.90
2023-01-29T06:48:52.438Z,99.91
2023-01-29T06:51:23.207Z,100.00
2023-01-29T06:53:51.435Z,99.60
2023-01-29T06:56:19.533Z,99.65
2023-01-29T06:58:47.789Z,97.90
2023-01-29T07:01:34.281Z,99.74
2023-01-29T07:04:04.380Z,99.77
2023-01-29T07:06:32.913Z,100.00
2023-01-29T07:09:01.153Z,99.71
2023-01-29T07:11:29.311Z,99.93
2023-01-29T07:13:57.739Z,100.00
2023-01-29T07:16:26.681Z,99.27
2023-01-29T07:18:55.101Z,98.41
2023-01-29T07:21:23.610Z,97.23
2023-01-29T07:23:51.779Z,97.50
2023-01-29T07:26:20.046Z,96.15
2023-01-29T07:28:48.264Z,95.58
2023-01-29T07:31:16.683Z,95.75
2023-01-29T07:33:46.281Z,98.82
2023-01-29T07:36:15.026Z,97.11
2023-01-29T07:38:43.257Z,95.62
2023-01-29T07:41:12.661Z,95.95
2023-01-29T07:43:40.799Z,95.20
2023-01-29T07:46:09.504Z,94.76
2023-01-29T07:48:37.957Z,96.24
2023-01-29T07:51:06.924Z,94.81
2023-01-29T07:53:37.246Z,95.23
2023-01-29T07:56:06.050Z,99.08
2023-01-29T07:58:36.448Z,96.79
2023-01-29T08:01:08.389Z,94.73
2023-01-29T08:03:37.058Z,98.56
2023-01-29T08:06:05.704Z,96.08
2023-01-29T08:08:34.194Z,95.14
2023-01-29T08:11:04.278Z,93.84
2023-01-29T08:13:32.982Z,95.13
2023-01-29T08:16:03.218Z,95.35
2023-01-29T08:18:34.362Z,93.94
2023-01-29T08:21:03.602Z,92.79
2023-01-29T08:23:31.871Z,91.11
2023-01-29T08:26:03.038Z,93.31
2023-01-29T08:28:31.736Z,92.32
2023-01-29T08:31:00.027Z,92.31
2023-01-29T08:33:38.707Z,90.79
2023-01-29T08:36:09.106Z,94.42
2023-01-29T08:38:37.328Z,94.20
2023-01-29T08:41:06.503Z,92.55
2023-01-29T08:43:37.236Z,90.54
2023-01-29T08:46:06.817Z,90.29
2023-01-29T08:48:35.311Z,91.08
2023-01-29T08:51:04.738Z,90.56
2023-01-29T08:53:33.613Z,89.69
2023-01-29T08:56:02.226Z,92.48
2023-01-29T08:58:30.384Z,92.29
2023-01-29T09:01:09.293Z,89.63
2023-01-29T09:03:41.230Z,90.61
2023-01-29T09:06:12.342Z,88.76
2023-01-29T09:08:40.818Z,88.91
2023-01-29T09:11:09.393Z,92.30
2023-01-29T09:13:37.799Z,96.37
2023-01-29T09:16:06.540Z,92.71
2023-01-29T09:18:34.713Z,94.13
2023-01-29T09:21:03.227Z,91.22
2023-01-29T09:23:31.393Z,88.31
2023-01-29T09:26:00.301Z,87.62
2023-01-29T09:28:28.554Z,88.17
2023-01-29T09:30:57.204Z,86.56
2023-01-29T09:33:26.274Z,86.00
2023-01-29T09:35:54.414Z,85.12
2023-01-29T09:38:22.533Z,86.60
2023-01-29T09:41:27.114Z,86.24
2023-01-29T09:44:02.456Z,87.33
2023-01-29T09:46:37.679Z,87.30
2023-01-29T09:49:18.978Z,87.42
2023-01-29T09:51:52.963Z,85.76
2023-01-29T09:54:33.916Z,86.02
2023-01-29T09:57:02.273Z,86.43
2023-01-29T09:59:32.478Z,86.44
2023-01-29T10:02:38.477Z,85.63
2023-01-29T10:05:18.596Z,86.91
2023-01-29T10:08:24.969Z,86.57
2023-01-29T10:11:34.767Z,85.87
2023-01-29T10:14:17.729Z,86.03
2023-01-29T10:17:15.163Z,84.02
2023-01-29T10:19:52.583Z,83.38
2023-01-29T10:22:44.927Z,83.60
2023-01-29T10:25:22.309Z,83.20
2023-01-29T10:27:53.505Z,82.98
2023-01-29T10:30:28.860Z,82.74
2023-01-29T10:33:02.822Z,82.99
2023-01-29T10:35:43.662Z,82.95
2023-01-29T10:38:18.196Z,83.03
2023-01-29T10:41:00.013Z,83.49
2023-01-29T10:43:39.457Z,84.34
2023-01-29T10:46:23.099Z,84.83
2023-01-29T10:48:55.643Z,84.05
2023-01-29T10:51:45.660Z,84.26
2023-01-29T10:54:42.302Z,85.10
2023-01-29T10:57:32.658Z,85.39
2023-01-29T11:00:07.463Z,84.01
2023-01-29T11:02:35.733Z,83.73
2023-01-29T11:05:04.059Z,83.98
2023-01-29T11:07:32.286Z,84.75
2023-01-29T11:10:00.441Z,85.37
2023-01-29T11:12:33.503Z,85.94
2023-01-29T11:15:20.119Z,85.02
2023-01-29T11:18:07.259Z,85.83
2023-01-29T11:20:35.387Z,86.46
2023-01-29T11:23:04.093Z,87.42
2023-01-29T11:25:33.218Z,87.29
2023-01-29T11:28:05.461Z,88.17
2023-01-29T11:30:41.954Z,88.77
2023-01-29T11:33:20.748Z,90.19
2023-01-29T11:35:48.963Z,89.59
2023-01-29T11:38:17.145Z,88.77
2023-01-29T11:40:46.039Z,88.51
2023-01-29T11:43:14.069Z,88.15
2023-01-29T11:45:42.402Z,88.35
2023-01-29T11:48:20.196Z,88.48
2023-01-29T11:50:54.624Z,88.84
2023-01-29T11:53:42.544Z,88.84
2023-01-29T11:56:19.950Z,89.00
2023-01-29T11:58:50.738Z,90.06
2023-01-29T12:01:31.139Z,91.04
2023-01-29T12:04:00.268Z,91.49
2023-01-29T12:06:36.513Z,91.07
2023-01-29T12:09:16.836Z,90.12
2023-01-29T12:11:45.343Z,90.25
2023-01-29T12:14:34.470Z,90.42
2023-01-29T12:17:12.657Z,91.00
2023-01-29T12:19:47.678Z,89.25
2023-01-29T12:22:23.699Z,91.14
2023-01-29T12:25:03.416Z,89.11
2023-01-29T12:27:46.742Z,87.29
2023-01-29T12:30:21.018Z,88.72
2023-01-29T12:33:12.061Z,89.51
2023-01-29T12:36:13.514Z,88.77
2023-01-29T12:38:45.092Z,89.23
2023-01-29T12:41:25.604Z,88.81
2023-01-29T12:43:57.816Z,89.12
2023-01-29T12:46:32.080Z,89.10
2023-01-29T12:49:05.415Z,87.42
2023-01-29T12:51:39.098Z,88.14
2023-01-29T12:54:13.844Z,87.96
2023-01-29T12:56:53.731Z,86.11
2023-01-29T12:59:37.004Z,88.40
2023-01-29T13:02:32.528Z,87.59
2023-01-29T13:05:19.758Z,86.99
2023-01-29T13:07:53.674Z,87.13
2023-01-29T13:10:28.497Z,87.02
2023-01-29T13:13:29.155Z,86.76
2023-01-29T13:16:00.240Z,86.63
2023-01-29T13:18:37.973Z,86.66
2023-01-29T13:21:07.478Z,86.17
2023-01-29T13:23:40.696Z,88.42
2023-01-29T13:26:08.890Z,87.11
2023-01-29T13:28:37.081Z,86.44
2023-01-29T13:31:30.030Z,86.96
2023-01-29T13:34:13.614Z,87.54
2023-01-29T13:36:48.754Z,88.80
2023-01-29T13:39:44.637Z,87.01
2023-01-29T13:42:37.990Z,87.15
2023-01-29T13:45:08.806Z,89.29
2023-01-29T13:47:39.492Z,88.42
2023-01-29T13:50:11.182Z,86.96
2023-01-29T13:52:53.445Z,87.10
2023-01-29T13:55:31.269Z,87.09
2023-01-29T13:58:01.339Z,88.42
2023-01-29T14:00:35.736Z,89.14
2023-01-29T14:03:05.026Z,89.11
2023-01-29T14:05:39.853Z,87.81
2023-01-29T14:08:14.387Z,88.25
2023-01-29T14:10:44.099Z,89.36
2023-01-29T14:13:18.421Z,89.32
2023-01-29T14:16:12.480Z,88.16
2023-01-29T14:18:55.600Z,87.96
2023-01-29T14:21:28.503Z,89.21
2023-01-29T14:24:18.763Z,90.97
2023-01-29T14:26:55.688Z,89.93
2023-01-29T14:29:35.044Z,88.87
2023-01-29T14:32:06.792Z,88.72
2023-01-29T14:34:46.222Z,88.57
2023-01-29T14:37:19.004Z,89.41
2023-01-29T14:39:57.988Z,92.90
2023-01-29T14:42:39.736Z,89.64
2023-01-29T14:45:30.218Z,91.15
2023-01-29T14:48:04.562Z,93.06
2023-01-29T14:50:32.845Z,92.73
2023-01-29T14:53:24.040Z,92.36
2023-01-29T14:56:03.431Z,88.95
2023-01-29T14:58:57.988Z,88.74
2023-01-29T15:01:32.766Z,87.83
2023-01-29T15:04:19.081Z,88.59
2023-01-29T15:06:51.495Z,89.33
2023-01-29T15:09:36.549Z,90.16
2023-01-29T15:12:20.730Z,89.41
2023-01-29T15:15:04.086Z,87.91
2023-01-29T15:17:52.809Z,87.51
2023-01-29T15:20:39.327Z,88.11
2023-01-29T15:23:23.249Z,89.85
2023-01-29T15:25:54.395Z,87.95
2023-01-29T15:28:24.012Z,89.92
2023-01-29T15:30:55.760Z,89.96
2023-01-29T15:33:24.358Z,89.28
2023-01-29T15:36:08.969Z,88.29
2023-01-29T15:38:37.290Z,88.18
2023-01-29T15:41:20.389Z,88.57
2023-01-29T15:43:51.843Z,89.42
2023-01-29T15:46:28.132Z,89.70
2023-01-29T15:49:01.120Z,89.94
2023-01-29T15:51:29.601Z,89.47
2023-01-29T15:54:08.733Z,91.13
2023-01-29T15:56:44.592Z,91.19
2023-01-29T15:59:26.045Z,91.53
2023-01-29T16:01:54.531Z,93.12
2023-01-29T16:04:29.015Z,91.60
2023-01-29T16:07:00.909Z,90.98
2023-01-29T16:09:29.848Z,91.24
2023-01-29T16:11:59.817Z,91.27
2023-01-29T16:14:30.298Z,91.12
2023-01-29T16:17:30.493Z,94.54
2023-01-29T16:20:00.846Z,92.81
2023-01-29T16:22:35.660Z,90.21
2023-01-29T16:25:07.600Z,90.38
2023-01-29T16:27:35.936Z,90.02
2023-01-29T16:30:07.613Z,89.20
2023-01-29T16:32:35.905Z,89.58
2023-01-29T16:35:06.131Z,90.96
2023-01-29T16:37:36.604Z,90.54
2023-01-29T16:40:24.960Z,90.79
2023-01-29T16:43:06.255Z,91.34
2023-01-29T16:45:34.516Z,91.98
2023-01-29T16:48:26.345Z,92.61
2023-01-29T16:51:06.518Z,91.62
2023-01-29T16:53:35.797Z,91.28
2023-01-29T16:56:08.340Z,90.95
2023-01-29T16:58:37.181Z,89.60
2023-01-29T17:01:09.671Z,90.30
2023-01-29T17:03:40.502Z,90.23
2023-01-29T17:06:11.630Z,89.46
2023-01-29T17:08:43.403Z,89.74
2023-01-29T17:11:23.754Z,89.75
2023-01-29T17:13:57.053Z,89.47
2023-01-29T17:16:30.425Z,89.25
2023-01-29T17:18:59.851Z,89.22
2023-01-29T17:21:30.530Z,88.72
2023-01-29T17:23:58.666Z,89.48
2023-01-29T17:26:27.076Z,89.32
2023-01-29T17:28:55.476Z,89.24
2023-01-29T17:31:23.697Z,89.88
2023-01-29T17:33:52.022Z,90.07
2023-01-29T17:36:20.280Z,90.60
2023-01-29T17:38:48.432Z,90.70
2023-01-29T17:41:27.643Z,90.94
2023-01-29T17:43:56.050Z,91.15
2023-01-29T17:46:24.224Z,91.04
2023-01-29T17:48:52.631Z,91.57
2023-01-29T17:51:22.445Z,91.05
2023-01-29T17:53:51.624Z,92.01
2023-01-29T17:56:27.786Z,92.57
2023-01-29T17:58:56.293Z,92.69
2023-01-29T18:01:24.531Z,92.46
2023-01-29T18:03:52.749Z,91.89
2023-01-29T18:06:28.506Z,92.56
2023-01-29T18:08:56.971Z,91.32
2023-01-29T18:11:25.350Z,91.53
2023-01-29T18:13:53.717Z,91.53
2023-01-29T18:16:22.729Z,91.05
2023-01-29T18:18:52.229Z,90.66
2023-01-29T18:21:20.278Z,90.29
2023-01-29T18:23:48.501Z,90.41
2023-01-29T18:26:17.555Z,90.26
2023-01-29T18:28:46.158Z,90.63
2023-01-29T18:31:14.603Z,90.81
2023-01-29T18:33:43.217Z,90.27
2023-01-29T18:36:11.315Z,89.79
2023-01-29T18:38:39.772Z,89.67
2023-01-29T18:41:10.904Z,90.62
2023-01-29T18:43:40.926Z,91.13
2023-01-29T18:46:10.008Z,91.49
2023-01-29T18:48:38.322Z,92.20
2023-01-29T18:51:07.514Z,91.23
2023-01-29T18:53:36.006Z,91.90
2023-01-29T18:56:05.942Z,92.53
2023-01-29T18:58:36.705Z,91.93
2023-01-29T19:01:09.304Z,91.29
2023-01-29T19:03:39.341Z,92.12
2023-01-29T19:06:10.777Z,91.68
2023-01-29T19:08:40.399Z,91.27
2023-01-29T19:11:09.221Z,90.99
2023-01-29T19:13:38.314Z,92.46
2023-01-29T19:16:09.159Z,90.97
2023-01-29T19:18:37.457Z,92.56
2023-01-29T19:21:11.561Z,90.77
2023-01-29T19:23:41.343Z,89.69
2023-01-29T19:26:10.632Z,91.47
2023-01-29T19:28:38.924Z,90.79
2023-01-29T19:31:08.111Z,90.69
2023-01-29T19:33:36.316Z,89.43
2023-01-29T19:36:05.330Z,88.43
2023-01-29T19:38:38.812Z,87.83
2023-01-29T19:41:07.087Z,88.71
2023-01-29T19:43:35.173Z,88.13
2023-01-29T19:46:03.488Z,89.32
2023-01-29T19:48:31.702Z,88.29
2023-01-29T19:51:02.518Z,86.97
2023-01-29T19:53:32.118Z,86.54
2023-01-29T20:03:38.274Z,85.60
2023-01-29T20:06:07.196Z,85.31
2023-01-29T20:08:36.156Z,85.87
2023-01-29T20:11:05.774Z,86.07
2023-01-29T20:13:34.174Z,85.12
2023-01-29T20:16:04.097Z,85.18
2023-01-29T20:18:32.506Z,85.82
2023-01-29T20:21:07.043Z,85.59
2023-01-29T20:23:38.658Z,85.92
2023-01-29T20:26:09.135Z,84.64
2023-01-29T20:28:37.566Z,84.86
2023-01-29T20:31:07.885Z,85.09
2023-01-29T20:33:39.179Z,85.82
2023-01-29T20:36:10.739Z,84.76
2023-01-29T20:38:39.265Z,84.90
2023-01-29T20:41:09.308Z,84.20
2023-01-29T20:43:37.670Z,82.66
2023-01-29T20:46:06.260Z,83.51
2023-01-29T20:48:34.638Z,83.88
2023-01-29T20:51:09.769Z,82.40
2023-01-29T20:53:38.469Z,83.44
2023-01-29T20:56:08.208Z,82.18
2023-01-29T20:58:36.859Z,81.86
2023-01-29T21:01:15.785Z,82.03
2023-01-29T21:03:44.911Z,81.60
2023-01-29T21:06:14.390Z,82.14
2023-01-29T21:08:42.534Z,84.32
2023-01-29T21:11:11.808Z,81.91
2023-01-29T21:13:40.133Z,79.77
2023-01-29T21:16:11.035Z,78.02
2023-01-29T21:18:39.676Z,78.56
2023-01-29T21:21:07.849Z,78.77
2023-01-29T21:23:36.059Z,79.50
2023-01-29T21:26:05.693Z,79.86
2023-01-29T21:28:35.121Z,79.49
2023-01-29T21:31:11.472Z,79.73
2023-01-29T21:33:39.673Z,78.73
2023-01-29T21:36:10.155Z,78.84
2023-01-29T21:38:39.513Z,79.67
2023-01-29T21:41:09.953Z,80.79
2023-01-29T21:43:39.228Z,79.85
2023-01-29T21:46:15.857Z,80.09
2023-01-29T21:48:44.294Z,81.06
2023-01-29T21:51:12.552Z,81.37
2023-01-29T21:53:40.951Z,81.09
2023-01-29T21:56:09.334Z,80.58
2023-01-29T21:58:37.605Z,82.22
2023-01-29T22:01:34.519Z,81.72
2023-01-29T22:03:55.776Z,79.60
2023-01-29T22:06:24.555Z,79.73
2023-01-29T22:08:53.243Z,80.25
2023-01-29T22:11:21.681Z,83.99
2023-01-29T22:13:49.900Z,86.56
2023-01-29T22:16:18.180Z,85.01
2023-01-29T22:18:46.661Z,83.58
2023-01-29T22:21:14.897Z,84.95
2023-01-29T22:23:42.969Z,84.79
2023-01-29T22:26:12.273Z,84.31
2023-01-29T22:28:40.544Z,83.07
2023-01-29T22:31:09.589Z,81.87
2023-01-29T22:33:37.967Z,82.17
2023-01-29T22:36:07.288Z,82.31
2023-01-29T22:38:35.965Z,84.92
2023-01-29T22:41:04.897Z,85.84
2023-01-29T22:43:33.131Z,84.76
2023-01-29T22:46:01.578Z,83.57
2023-01-29T22:48:30.750Z,82.15
2023-01-29T22:51:09.573Z,82.90
2023-01-29T22:53:40.042Z,83.28
2023-01-29T22:56:09.819Z,82.72
2023-01-29T22:58:38.494Z,84.74
2023-01-29T23:01:07.565Z,85.51
2023-01-29T23:03:36.277Z,87.96
2023-01-29T23:06:04.537Z,88.78
2023-01-29T23:08:33.952Z,83.24
2023-01-29T23:11:17.982Z,85.11
2023-01-29T23:13:54.698Z,86.74
2023-01-29T23:16:28.005Z,88.26
2023-01-29T23:18:57.379Z,88.08
2023-01-29T23:21:27.334Z,88.65
2023-01-29T23:23:58.528Z,92.40
2023-01-29T23:26:47.550Z,88.70
2023-01-29T23:29:16.295Z,84.15
2023-01-29T23:31:44.652Z,84.74
2023-01-29T23:34:14.075Z,85.00
2023-01-29T23:36:43.086Z,83.88
2023-01-29T23:39:11.191Z,82.60
2023-01-29T23:41:39.405Z,84.56
2023-01-29T23:44:07.696Z,86.37
2023-01-29T23:46:36.168Z,83.72
2023-01-29T23:49:04.664Z,81.85
2023-01-29T23:51:32.862Z,84.51
2023-01-29T23:54:01.128Z,82.41
2023-01-29T23:56:29.255Z,85.33
2023-01-29T23:58:58.891Z,84.39
